Time;durP1;ratioP1;P1;durP2;ratioP2;P2;SDS_P1;SDS_P2;PMS_P1;PMS_P2;Temp;Humidity;BMP_temperature;BMP_pressure;BME280_temperature;BME280_humidity;BME280_pressure;Samples;Min_cycle;Max_cycle;Signal;HPM_P1;HPM_P2
2022/05/22 00:02:15;;;;;;;17.50;7.35;;;6.50;99.90;;;;;;5034482;28;20128;-83
2022/05/22 00:04:40;;;;;;;18.75;7.78;;;6.50;99.90;;;;;;5035635;28;20120;-83
2022/05/22 00:07:06;;;;;;;23.70;7.03;;;6.50;99.90;;;;;;5035894;28;20041;-83
2022/05/22 00:09:36;;;;;;;22.48;7.28;;;6.50;99.90;;;;;;5035838;28;20061;-83
2022/05/22 00:12:03;;;;;;;23.88;7.90;;;6.50;99.90;;;;;;5035734;28;20041;-83
2022/05/22 00:14:28;;;;;;;13.00;6.40;;;6.50;99.90;;;;;;5035375;28;20080;-83
2022/05/22 00:16:54;;;;;;;19.80;7.50;;;6.50;99.90;;;;;;5033720;28;20038;-83
2022/05/22 00:19:26;;;;;;;21.00;8.10;;;6.40;99.90;;;;;;5035672;28;20516;-83
2022/05/22 00:21:52;;;;;;;19.92;7.85;;;6.30;99.90;;;;;;5035999;28;20081;-84
2022/05/22 00:24:20;;;;;;;18.45;7.65;;;6.30;99.90;;;;;;5033977;28;20041;-83
2022/05/22 00:26:46;;;;;;;22.98;8.15;;;6.30;99.90;;;;;;5018294;28;20053;-83
2022/05/22 00:29:13;;;;;;;18.15;8.43;;;6.30;99.90;;;;;;5035390;28;20073;-83
2022/05/22 00:31:38;;;;;;;18.33;8.73;;;6.30;99.90;;;;;;5034856;28;20038;-82
2022/05/22 00:34:04;;;;;;;27.38;9.18;;;6.30;99.90;;;;;;5035110;28;20120;-82
2022/05/22 00:36:30;;;;;;;24.83;8.95;;;6.20;99.90;;;;;;5035021;28;20037;-83
2022/05/22 00:38:56;;;;;;;16.20;7.75;;;6.20;99.90;;;;;;5035645;28;20073;-83
2022/05/22 00:41:21;;;;;;;19.33;7.93;;;6.10;99.90;;;;;;5035062;28;20045;-83
2022/05/22 00:43:49;;;;;;;19.02;8.25;;;6.10;99.90;;;;;;5035086;28;20414;-83
2022/05/22 00:46:17;;;;;;;22.63;7.70;;;6.00;99.90;;;;;;5034776;28;20121;-83
2022/05/22 00:48:49;;;;;;;19.00;7.85;;;6.10;99.90;;;;;;5034445;28;20085;-83
2022/05/22 00:51:19;;;;;;;19.17;8.32;;;6.10;99.90;;;;;;5035202;28;20060;-83
2022/05/22 00:53:58;;;;;;;34.47;10.63;;;6.10;99.90;;;;;;5035051;28;20505;-83
2022/05/22 00:56:33;;;;;;;17.50;8.73;;;6.10;99.90;;;;;;5034074;28;20041;-83
2022/05/22 00:58:59;;;;;;;25.08;8.63;;;6.00;99.90;;;;;;5035705;28;20045;-83
2022/05/22 01:01:25;;;;;;;22.60;8.60;;;6.00;99.90;;;;;;5035040;28;20554;-83
2022/05/22 01:03:50;;;;;;;21.17;10.45;;;6.00;99.90;;;;;;5034810;28;20045;-83
2022/05/22 01:06:22;;;;;;;26.08;9.95;;;6.00;99.90;;;;;;5034986;28;20128;-83
2022/05/22 01:08:48;;;;;;;22.95;8.68;;;6.00;99.90;;;;;;5034024;28;20042;-83
2022/05/22 01:11:19;;;;;;;19.75;8.95;;;5.90;99.90;;;;;;5033711;28;20041;-83
2022/05/22 01:13:50;;;;;;;25.00;9.15;;;5.90;99.90;;;;;;5035523;28;20048;-83
2022/05/22 01:16:15;;;;;;;32.10;10.45;;;5.90;99.90;;;;;;5035298;28;20049;-83
2022/05/22 01:18:51;;;;;;;23.48;9.77;;;5.90;99.90;;;;;;5035180;28;20080;-83
2022/05/22 01:21:22;;;;;;;23.42;9.35;;;5.90;99.90;;;;;;5034746;28;20056;-83
2022/05/22 01:23:49;;;;;;;22.98;9.63;;;6.00;99.90;;;;;;5034757;28;20494;-83
2022/05/22 01:26:14;;;;;;;27.90;9.63;;;5.90;99.90;;;;;;5034431;28;20530;-83
2022/05/22 01:28:40;;;;;;;26.33;10.18;;;6.00;99.90;;;;;;5035780;28;20049;-83
2022/05/22 01:31:06;;;;;;;26.00;8.98;;;5.90;99.90;;;;;;5038116;28;20049;-83
2022/05/22 01:33:36;;;;;;;30.63;11.00;;;5.90;99.90;;;;;;5038346;28;20087;-83
2022/05/22 01:36:02;;;;;;;25.45;9.93;;;5.80;99.90;;;;;;5038723;28;20042;-83
2022/05/22 01:38:28;;;;;;;21.50;9.30;;;5.70;99.90;;;;;;5036655;28;20052;-83
2022/05/22 01:40:54;;;;;;;25.35;9.30;;;5.70;99.90;;;;;;5040023;28;20033;-83
2022/05/22 01:43:19;;;;;;;24.70;8.85;;;5.70;99.90;;;;;;5039255;28;20041;-83
2022/05/22 01:45:45;;;;;;;24.92;9.73;;;5.70;99.90;;;;;;5038666;28;20026;-82
2022/05/22 01:48:11;;;;;;;26.90;9.65;;;5.70;99.90;;;;;;5038714;28;20045;-83
2022/05/22 01:50:39;;;;;;;21.42;9.30;;;5.70;99.90;;;;;;5037892;28;20049;-83
2022/05/22 01:53:05;;;;;;;30.40;10.65;;;5.70;99.90;;;;;;5037801;28;20037;-83
2022/05/22 01:55:30;;;;;;;25.17;9.50;;;5.60;99.90;;;;;;5039953;28;20037;-83
2022/05/22 01:57:56;;;;;;;30.98;10.23;;;5.60;99.90;;;;;;5042092;28;20068;-82
2022/05/22 02:00:24;;;;;;;24.65;10.52;;;5.50;99.90;;;;;;5082583;22;20420;-74
2022/05/22 02:02:50;;;;;;;26.88;10.45;;;5.50;99.90;;;;;;5053800;28;20128;-74
2022/05/22 02:05:17;;;;;;;31.05;11.38;;;5.50;99.90;;;;;;5053787;28;20032;-74
2022/05/22 02:10:27;;;;;;;30.17;10.93;;;5.50;99.90;;;;;;5053276;28;20123;-74
2022/05/22 02:12:53;;;;;;;27.27;10.93;;;5.60;99.90;;;;;;5054168;28;20576;-74
2022/05/22 02:15:20;;;;;;;21.25;10.57;;;5.50;99.90;;;;;;5054171;28;20488;-74
2022/05/22 02:17:46;;;;;;;27.60;10.75;;;5.50;99.90;;;;;;5053401;28;20095;-74
2022/05/22 02:20:11;;;;;;;23.73;11.00;;;5.50;99.90;;;;;;5054701;28;20041;-74
2022/05/22 02:22:42;;;;;;;22.90;9.93;;;5.50;99.90;;;;;;5054590;28;20068;-74
2022/05/22 02:25:08;;;;;;;22.23;10.52;;;5.50;99.90;;;;;;5054035;28;20048;-74
2022/05/22 02:27:33;;;;;;;23.98;10.80;;;5.40;99.90;;;;;;5054463;28;20533;-73
2022/05/22 02:30:00;;;;;;;27.55;12.35;;;5.50;99.90;;;;;;5053820;28;20132;-74
2022/05/22 02:32:25;;;;;;;29.58;12.18;;;5.40;99.90;;;;;;5053984;28;20090;-74
2022/05/22 02:34:51;;;;;;;32.15;12.73;;;5.40;99.90;;;;;;5054316;28;20045;-74
2022/05/22 02:37:16;;;;;;;33.22;13.30;;;5.40;99.90;;;;;;5053951;28;20049;-74
2022/05/22 02:39:42;;;;;;;34.25;13.10;;;5.40;99.90;;;;;;5053024;28;20041;-73
2022/05/22 02:42:07;;;;;;;26.48;11.75;;;5.50;99.90;;;;;;5053412;28;20037;-74
2022/05/22 02:44:33;;;;;;;33.40;13.60;;;5.50;99.90;;;;;;5054034;28;20064;-74
2022/05/22 02:46:59;;;;;;;36.45;14.82;;;5.50;99.90;;;;;;5053688;28;20052;-73
2022/05/22 02:49:25;;;;;;;34.78;14.68;;;5.50;99.90;;;;;;5054130;28;20051;-74
2022/05/22 02:51:50;;;;;;;41.63;13.35;;;5.50;99.90;;;;;;5054094;28;20120;-74
2022/05/22 02:54:16;;;;;;;31.27;12.65;;;5.40;99.90;;;;;;5053881;28;20048;-74
2022/05/22 02:56:42;;;;;;;35.97;12.10;;;5.40;99.90;;;;;;5053664;28;20052;-74
2022/05/22 02:59:07;;;;;;;32.33;13.02;;;5.30;99.90;;;;;;5053491;28;20485;-74
2022/05/22 03:01:33;;;;;;;30.73;12.98;;;5.30;99.90;;;;;;5053561;28;20055;-74
2022/05/22 03:03:58;;;;;;;34.40;14.00;;;5.30;99.90;;;;;;5053673;28;20041;-74
2022/05/22 03:06:39;;;;;;;32.47;12.52;;;5.40;99.90;;;;;;5053188;28;20037;-74
2022/05/22 03:09:14;;;;;;;34.55;13.38;;;5.40;99.90;;;;;;5053335;28;20083;-74
2022/05/22 03:11:40;;;;;;;36.10;12.52;;;5.30;99.90;;;;;;5052073;28;20551;-74
2022/05/22 03:14:07;;;;;;;30.70;12.13;;;5.30;99.90;;;;;;5053236;28;20112;-74
2022/05/22 03:16:33;;;;;;;30.38;12.38;;;5.30;99.90;;;;;;5052920;28;20515;-74
2022/05/22 03:18:59;;;;;;;30.50;13.40;;;5.20;99.90;;;;;;5053613;28;20088;-74
2022/05/22 03:21:27;;;;;;;32.30;12.05;;;5.30;99.90;;;;;;5053539;28;20041;-74
2022/05/22 03:23:53;;;;;;;28.77;12.98;;;5.30;99.90;;;;;;5052914;28;20044;-74
2022/05/22 03:26:18;;;;;;;33.60;13.07;;;5.30;99.90;;;;;;5053093;28;20044;-74
2022/05/22 03:28:44;;;;;;;28.70;12.65;;;5.30;99.90;;;;;;5053125;28;20428;-74
2022/05/22 03:31:09;;;;;;;27.00;12.75;;;5.40;99.90;;;;;;5052938;28;20485;-74
2022/05/22 03:33:35;;;;;;;35.15;12.38;;;5.40;99.90;;;;;;5052701;28;20055;-74
2022/05/22 03:36:00;;;;;;;36.47;12.38;;;5.40;99.90;;;;;;5052780;28;20473;-74
2022/05/22 03:38:26;;;;;;;32.67;13.07;;;5.40;99.90;;;;;;5053057;28;20041;-74
2022/05/22 03:40:52;;;;;;;36.80;12.68;;;5.40;99.90;;;;;;5052852;28;20094;-74
2022/05/22 03:43:18;;;;;;;34.70;14.38;;;5.40;99.90;;;;;;5052569;28;20048;-73
2022/05/22 03:45:44;;;;;;;35.60;12.85;;;5.40;99.90;;;;;;5052220;28;20041;-74
2022/05/22 03:48:11;;;;;;;30.38;13.00;;;5.40;99.90;;;;;;5053051;28;20455;-73
2022/05/22 03:50:37;;;;;;;31.75;13.50;;;5.50;99.90;;;;;;5052872;28;20086;-74
2022/05/22 03:53:03;;;;;;;36.70;14.30;;;5.60;99.90;;;;;;5052421;28;20047;-74
2022/05/22 03:55:30;;;;;;;33.40;14.43;;;5.60;99.90;;;;;;5052410;28;20048;-74
2022/05/22 03:57:55;;;;;;;35.45;14.30;;;5.60;99.90;;;;;;5051692;28;20171;-74
2022/05/22 04:00:23;;;;;;;37.03;14.80;;;5.60;99.90;;;;;;5052597;28;20087;-74
2022/05/22 04:02:49;;;;;;;34.42;15.25;;;5.60;99.90;;;;;;5052729;28;20041;-74
2022/05/22 04:05:14;;;;;;;32.35;13.63;;;5.60;99.90;;;;;;5052630;28;20045;-74
2022/05/22 04:07:49;;;;;;;36.28;13.93;;;5.60;99.90;;;;;;5052839;28;20133;-74
2022/05/22 04:10:17;;;;;;;40.50;16.13;;;5.70;99.90;;;;;;5052649;28;20516;-73
2022/05/22 04:12:43;;;;;;;40.65;14.50;;;5.80;99.90;;;;;;5051018;28;20382;-74
2022/05/22 04:15:12;;;;;;;42.80;15.48;;;5.90;99.90;;;;;;5050837;28;20095;-73
2022/05/22 04:17:38;;;;;;;44.40;14.70;;;6.00;99.90;;;;;;5052653;28;20045;-73
2022/05/22 04:20:04;;;;;;;39.38;15.60;;;6.20;99.90;;;;;;5052842;28;20120;-74
2022/05/22 04:22:30;;;;;;;35.05;14.88;;;6.40;99.90;;;;;;5052432;28;20072;-74
2022/05/22 04:25:15;;;;;;;37.38;16.52;;;6.60;99.90;;;;;;5052122;28;20059;-73
2022/05/22 04:27:42;;;;;;;42.00;16.75;;;6.80;99.90;;;;;;5052589;28;20052;-73
2022/05/22 04:30:10;;;;;;;46.38;17.08;;;6.90;99.90;;;;;;5052376;28;20053;-73
2022/05/22 04:32:35;;;;;;;43.88;16.65;;;7.10;99.90;;;;;;5052131;28;20381;-72
2022/05/22 04:35:01;;;;;;;42.92;17.45;;;7.20;99.90;;;;;;5052602;28;20116;-73
2022/05/22 04:37:26;;;;;;;43.58;17.50;;;7.40;99.90;;;;;;5052491;28;20489;-73
2022/05/22 04:39:52;;;;;;;40.88;16.80;;;7.70;99.90;;;;;;5051302;28;20623;-74
2022/05/22 04:42:18;;;;;;;46.28;18.40;;;8.20;99.90;;;;;;5052652;28;20131;-74
2022/05/22 04:44:43;;;;;;;39.78;17.08;;;8.80;99.90;;;;;;5051032;28;20051;-73
2022/05/22 04:47:09;;;;;;;34.38;14.65;;;9.00;99.90;;;;;;5052346;28;20047;-74
2022/05/22 04:49:35;;;;;;;35.05;13.55;;;9.40;99.90;;;;;;5052400;28;20072;-74
2022/05/22 04:52:00;;;;;;;34.50;13.48;;;9.60;99.90;;;;;;5051137;28;20405;-74
2022/05/22 04:54:26;;;;;;;26.52;11.30;;;9.70;99.90;;;;;;5052024;28;20140;-74
2022/05/22 04:56:53;;;;;;;21.42;10.30;;;9.90;99.90;;;;;;5050808;28;20502;-74
2022/05/22 04:59:19;;;;;;;21.15;9.77;;;10.30;99.90;;;;;;5052390;28;20405;-74
2022/05/22 05:01:45;;;;;;;24.50;9.07;;;10.70;99.90;;;;;;5051080;28;20089;-74
2022/05/22 05:04:13;;;;;;;15.82;8.23;;;11.00;99.90;;;;;;5052320;28;20513;-74
2022/05/22 05:06:38;;;;;;;20.95;8.57;;;11.20;99.90;;;;;;5056004;28;20049;-73
2022/05/22 05:09:04;;;;;;;17.88;7.85;;;11.30;99.90;;;;;;5056061;28;20044;-74
2022/05/22 05:11:30;;;;;;;16.75;6.95;;;11.50;99.90;;;;;;5055692;28;20152;-74
2022/05/22 05:13:55;;;;;;;13.25;6.72;;;11.80;99.90;;;;;;5055576;28;20033;-74
2022/05/22 05:16:22;;;;;;;19.50;7.35;;;12.20;99.90;;;;;;5055510;28;20130;-73
2022/05/22 05:18:48;;;;;;;15.65;5.93;;;12.40;99.90;;;;;;5055523;28;20049;-73
2022/05/22 05:21:15;;;;;;;13.35;5.72;;;12.70;99.90;;;;;;5055670;28;20045;-73
2022/05/22 05:23:41;;;;;;;9.95;5.22;;;12.90;99.90;;;;;;5054033;28;20140;-73
2022/05/22 05:26:07;;;;;;;12.05;5.20;;;13.20;99.90;;;;;;5055304;28;20540;-74
2022/05/22 05:28:33;;;;;;;14.68;5.90;;;13.60;99.90;;;;;;5055559;28;20468;-73
2022/05/22 05:30:59;;;;;;;16.52;5.82;;;13.90;99.90;;;;;;5055129;28;20045;-73
2022/05/22 05:33:25;;;;;;;13.65;5.00;;;14.20;99.90;;;;;;5055031;28;20087;-73
2022/05/22 05:35:51;;;;;;;15.02;5.80;;;14.50;99.90;;;;;;5055210;28;20398;-73
2022/05/22 05:38:16;;;;;;;10.95;4.18;;;14.90;99.90;;;;;;5054004;28;20051;-74
2022/05/22 05:40:42;;;;;;;11.80;4.80;;;15.30;99.90;;;;;;5055214;28;20037;-74
2022/05/22 05:43:08;;;;;;;13.10;5.03;;;15.50;99.90;;;;;;5054806;28;20044;-74
2022/05/22 05:45:34;;;;;;;15.70;5.22;;;15.90;99.90;;;;;;5055004;28;20048;-74
2022/05/22 05:48:00;;;;;;;8.63;4.40;;;16.10;99.90;;;;;;5055160;28;20083;-74
2022/05/22 05:50:26;;;;;;;13.82;5.50;;;16.30;99.90;;;;;;5054706;28;20047;-74
2022/05/22 05:52:54;;;;;;;11.73;4.70;;;16.60;99.90;;;;;;5054086;28;20512;-74
2022/05/22 05:55:20;;;;;;;14.90;4.55;;;16.90;99.90;;;;;;5054903;28;20056;-74
2022/05/22 05:57:46;;;;;;;16.75;5.22;;;17.30;99.90;;;;;;5054888;28;20041;-74
2022/05/22 06:00:16;;;;;;;16.23;5.13;;;17.60;99.90;;;;;;5054378;28;20053;-74
2022/05/22 06:02:42;;;;;;;13.50;5.25;;;17.70;99.90;;;;;;5054231;28;20033;-74
2022/05/22 06:05:09;;;;;;;15.68;5.50;;;17.90;99.90;;;;;;5054154;28;20049;-74
2022/05/22 06:07:35;;;;;;;8.70;4.20;;;18.40;99.90;;;;;;5054649;28;20041;-74
2022/05/22 06:10:01;;;;;;;17.63;4.97;;;18.50;97.90;;;;;;5054490;28;20106;-74
2022/05/22 06:12:26;;;;;;;15.65;4.65;;;18.80;94.00;;;;;;5054383;28;20091;-74
2022/05/22 06:14:52;;;;;;;12.05;5.30;;;19.00;90.10;;;;;;5053971;28;20086;-74
2022/05/22 06:17:17;;;;;;;19.90;6.38;;;19.20;85.10;;;;;;5054402;28;20045;-74
2022/05/22 06:19:55;;;;;;;9.70;4.43;;;19.50;74.10;;;;;;5054394;28;20041;-74
2022/05/22 06:22:22;;;;;;;13.52;4.57;;;19.90;61.80;;;;;;5054054;28;20045;-74
2022/05/22 06:24:48;;;;;;;14.55;5.03;;;19.90;63.80;;;;;;5053903;28;20041;-74
2022/05/22 06:27:14;;;;;;;15.60;5.10;;;20.00;64.50;;;;;;5054160;28;20477;-74
2022/05/22 06:29:41;;;;;;;10.63;4.07;;;20.30;62.40;;;;;;5054176;28;20143;-74
2022/05/22 06:32:10;;;;;;;13.38;4.68;;;20.60;58.80;;;;;;5054035;28;20444;-74
2022/05/22 06:34:36;;;;;;;11.40;5.07;;;21.00;50.10;;;;;;5054312;28;20045;-74
2022/05/22 06:37:03;;;;;;;13.60;4.82;;;21.30;46.90;;;;;;5054121;28;20072;-74
2022/05/22 06:42:16;;;;;;;15.80;4.50;;;21.70;38.10;;;;;;5054131;28;20477;-74
2022/05/22 06:44:41;;;;;;;12.00;4.18;;;21.80;34.40;;;;;;5053703;28;20045;-74
2022/05/22 06:47:08;;;;;;;14.57;4.20;;;22.00;37.50;;;;;;5053931;28;20041;-75
2022/05/22 06:49:34;;;;;;;14.75;4.97;;;22.20;29.90;;;;;;5054174;28;20076;-75
2022/05/22 06:51:59;;;;;;;13.18;4.35;;;22.40;23.20;;;;;;5053717;28;20093;-75
2022/05/22 06:54:25;;;;;;;16.30;4.65;;;22.40;21.10;;;;;;5053664;28;20044;-75
2022/05/22 06:56:50;;;;;;;12.63;3.47;;;22.30;21.70;;;;;;5053428;28;20044;-75
2022/05/22 06:59:16;;;;;;;14.02;4.47;;;22.60;16.90;;;;;;5053379;28;20056;-75
2022/05/22 07:01:42;;;;;;;14.18;4.28;;;22.80;10.70;;;;;;5050076;28;20045;-75
2022/05/22 07:04:08;;;;;;;11.45;3.78;;;22.80;11.50;;;;;;5050811;28;20080;-75
2022/05/22 07:06:33;;;;;;;12.07;4.60;;;23.10;7.90;;;;;;5050111;28;20048;-75
2022/05/22 07:08:59;;;;;;;15.63;4.68;;;23.00;2.50;;;;;;5050587;28;20652;-75
2022/05/22 07:11:40;;;;;;;12.55;3.50;;;23.10;7.30;;;;;;5050048;28;20146;-75
2022/05/22 07:14:07;;;;;;;11.60;3.20;;;23.50;1.00;;;;;;5050885;28;20048;-75
2022/05/22 07:16:34;;;;;;;12.15;3.22;;;23.60;1.30;;;;;;5050595;28;20128;-75
2022/05/22 07:19:01;;;;;;;11.55;3.55;;;23.70;1.00;;;;;;5050618;28;20056;-74
2022/05/22 07:21:27;;;;;;;12.65;3.10;;;23.90;1.00;;;;;;5049909;28;20048;-73
2022/05/22 07:23:52;;;;;;;7.60;2.53;;;23.90;1.00;;;;;;5050564;28;20041;-74
2022/05/22 07:26:19;;;;;;;10.00;2.80;;;24.20;1.00;;;;;;5049519;28;20056;-74
2022/05/22 07:28:45;;;;;;;12.00;3.53;;;24.60;1.00;;;;;;5050566;28;20049;-73
2022/05/22 07:31:21;;;;;;;12.95;2.95;;;24.80;1.00;;;;;;5049266;28;20052;-74
2022/05/22 07:33:46;;;;;;;;;;;25.10;1.00;;;;;;5048642;28;20064;-74
2022/05/22 07:36:12;;;;;;;9.32;2.70;;;24.80;1.00;;;;;;5049522;28;20427;-74
2022/05/22 07:38:38;;;;;;;11.85;2.85;;;25.20;1.00;;;;;;5049750;28;20049;-74
2022/05/22 07:41:03;;;;;;;12.27;3.10;;;25.20;1.00;;;;;;5049629;28;20037;-74
2022/05/22 07:43:29;;;;;;;9.43;2.67;;;25.50;1.00;;;;;;5049138;28;20087;-74
2022/05/22 07:45:54;;;;;;;12.63;3.38;;;25.60;1.00;;;;;;5049373;28;20041;-75
2022/05/22 07:48:21;;;;;;;21.55;3.72;;;25.50;1.00;;;;;;5049050;28;20048;-75
2022/05/22 07:50:47;;;;;;;11.35;2.67;;;25.80;1.00;;;;;;5048955;28;20048;-75
2022/05/22 07:53:13;;;;;;;7.70;2.85;;;25.80;1.00;;;;;;5049140;28;20041;-75
2022/05/22 07:55:41;;;;;;;9.07;2.75;;;25.60;1.00;;;;;;5046218;28;20044;-75
2022/05/22 07:58:07;;;;;;;10.02;2.60;;;25.70;1.00;;;;;;5049055;28;20072;-75
2022/05/22 08:00:32;;;;;;;10.95;2.65;;;25.60;1.00;;;;;;5048851;28;20592;-75
2022/05/22 08:02:59;;;;;;;6.32;2.50;;;26.10;1.00;;;;;;5049409;28;20127;-75
2022/05/22 08:05:24;;;;;;;10.52;3.22;;;26.20;1.00;;;;;;5049232;28;20048;-75
2022/05/22 08:07:50;;;;;;;12.10;2.50;;;26.20;1.00;;;;;;5048635;28;20532;-75
2022/05/22 08:10:18;;;;;;;8.80;2.28;;;24.90;1.00;;;;;;5048883;28;20037;-75
2022/05/22 08:12:47;;;;;;;10.95;1.88;;;23.60;1.00;;;;;;5049340;28;20040;-75
2022/05/22 08:15:15;;;;;;;9.32;2.40;;;23.20;1.00;;;;;;5048667;28;20525;-75
2022/05/22 08:17:40;;;;;;;11.90;2.33;;;22.90;1.00;;;;;;5046034;28;20452;-75
2022/05/22 08:20:15;;;;;;;10.73;2.85;;;22.90;1.00;;;;;;5048478;28;20045;-75
2022/05/22 08:22:44;;;;;;;13.88;3.47;;;23.40;1.00;;;;;;5046741;28;20049;-75
2022/05/22 08:25:11;;;;;;;8.73;2.15;;;24.80;1.00;;;;;;5048664;28;20041;-75
2022/05/22 08:27:37;;;;;;;8.60;2.83;;;25.40;1.00;;;;;;5048117;28;20475;-75
2022/05/22 08:30:04;;;;;;;10.23;2.28;;;26.00;1.00;;;;;;5048303;28;20057;-75
2022/05/22 08:32:30;;;;;;;9.93;2.35;;;26.50;1.00;;;;;;5048636;28;20260;-75
2022/05/22 08:34:56;;;;;;;11.45;2.88;;;27.10;1.00;;;;;;5048891;28;20053;-75
2022/05/22 08:37:22;;;;;;;10.02;2.25;;;27.30;1.00;;;;;;5048774;28;20486;-75
2022/05/22 08:39:48;;;;;;;11.50;2.78;;;26.40;1.00;;;;;;5051453;28;20044;-75
2022/05/22 08:42:38;;;;;;;10.82;2.30;;;25.00;1.00;;;;;;5052787;28;20044;-75
2022/05/22 08:45:09;;;;;;;11.82;2.25;;;23.30;1.00;;;;;;5050446;28;20044;-75
2022/05/22 08:47:44;;;;;;;7.90;2.30;;;22.30;1.00;;;;;;5052162;28;20452;-75
2022/05/22 08:50:11;;;;;;;10.27;2.38;;;21.60;1.00;;;;;;5052449;28;20094;-75
2022/05/22 08:52:42;;;;;;;7.57;1.90;;;21.00;1.00;;;;;;5052596;28;20047;-75
2022/05/22 08:59:00;;;;;;;8.00;2.50;;;22.60;1.00;;;;;;5030442;28;20041;-75
2022/05/22 09:01:38;;;;;;;9.90;1.98;;;21.60;1.00;;;;;;5052092;28;20071;-75
2022/05/22 09:04:03;;;;;;;5.55;1.70;;;22.00;1.00;;;;;;5052194;28;20481;-75
2022/05/22 09:06:35;;;;;;;8.80;1.92;;;22.20;1.00;;;;;;5052484;28;20136;-75
2022/05/22 09:09:01;;;;;;;7.32;1.90;;;23.30;1.00;;;;;;5052204;28;20072;-75
2022/05/22 09:11:26;;;;;;;10.18;2.40;;;24.10;1.00;;;;;;5052138;28;20045;-75
2022/05/22 09:14:37;;;;;;;6.88;2.13;;;24.80;1.00;;;;;;5052420;28;20174;-75
2022/05/22 09:17:17;;;;;;;9.00;1.95;;;25.40;1.00;;;;;;5052322;28;20057;-75
2022/05/22 09:20:09;;;;;;;8.98;1.92;;;26.70;1.00;;;;;;5052327;28;20063;-75
2022/05/22 09:23:04;;;;;;;8.20;1.90;;;27.40;1.00;;;;;;5051753;28;20049;-75
2022/05/22 09:25:45;;;;;;;9.38;2.35;;;28.20;1.00;;;;;;5052008;28;20090;-75
2022/05/22 09:28:31;;;;;;;5.53;1.55;;;26.80;1.00;;;;;;5050805;28;20128;-75
2022/05/22 09:31:13;;;;;;;7.05;1.67;;;27.80;1.00;;;;;;5051233;28;20045;-74
2022/05/22 09:33:46;;;;;;;6.95;1.77;;;28.00;1.00;;;;;;5051896;28;20390;-75
2022/05/22 09:36:35;;;;;;;11.43;2.47;;;27.30;1.00;;;;;;5051637;28;20436;-76
2022/05/22 09:39:29;;;;;;;9.32;2.45;;;25.50;1.00;;;;;;5052213;28;20056;-76
2022/05/22 09:41:54;;;;;;;9.25;1.65;;;24.00;1.00;;;;;;5055846;28;20049;-75
2022/05/22 09:44:38;;;;;;;8.95;2.30;;;23.70;1.00;;;;;;5054164;28;20037;-76
2022/05/22 09:47:21;;;;;;;10.45;2.25;;;23.40;1.00;;;;;;5054820;28;20047;-75
2022/05/22 09:50:24;;;;;;;7.80;1.90;;;23.70;1.00;;;;;;5053894;28;20057;-74
2022/05/22 09:53:07;;;;;;;6.38;1.50;;;24.30;1.00;;;;;;5041358;28;20235;-75
2022/05/22 09:55:45;;;;;;;9.13;2.00;;;25.00;1.00;;;;;;5055059;28;20045;-75
2022/05/22 09:59:09;;;;;;;10.82;2.42;;;25.00;1.00;;;;;;5055138;28;20115;-75
2022/05/22 10:01:42;;;;;;;6.45;1.35;;;25.50;1.00;;;;;;5001772;28;20049;-75
2022/05/22 10:04:19;;;;;;;8.50;1.77;;;25.80;1.00;;;;;;5054266;28;20095;-75
2022/05/22 10:07:18;;;;;;;5.82;1.40;;;24.40;1.00;;;;;;5054516;28;20053;-75
2022/05/22 10:09:50;;;;;;;3.85;1.30;;;24.60;1.00;;;;;;5054092;28;20080;-75
2022/05/22 10:12:33;;;;;;;9.85;1.73;;;24.30;1.00;;;;;;5054328;28;20137;-75
2022/05/22 10:15:35;;;;;;;18.48;3.72;;;23.90;1.00;;;;;;5053836;28;20060;-75
2022/05/22 10:18:37;;;;;;;5.28;1.20;;;23.40;1.00;;;;;;5054227;28;20048;-76
2022/05/22 10:21:18;;;;;;;7.50;1.85;;;23.40;1.00;;;;;;5039520;28;20044;-75
2022/05/22 10:24:03;;;;;;;4.80;1.23;;;23.50;1.00;;;;;;5053459;28;20378;-75
2022/05/22 10:26:58;;;;;;;7.63;1.60;;;23.20;1.00;;;;;;5053993;28;20087;-74
2022/05/22 10:29:46;;;;;;;8.07;1.85;;;23.50;1.00;;;;;;5054100;28;20045;-75
2022/05/22 10:32:24;;;;;;;4.15;1.27;;;23.50;1.00;;;;;;5052748;28;20049;-75
2022/05/22 10:35:01;;;;;;;6.78;1.00;;;23.10;1.00;;;;;;5053814;28;20074;-74
2022/05/22 10:37:49;;;;;;;4.40;1.20;;;23.20;1.00;;;;;;5053929;28;20064;-75
2022/05/22 10:40:20;;;;;;;5.10;1.42;;;23.30;1.00;;;;;;5053709;28;20056;-76
2022/05/22 10:42:50;;;;;;;5.25;1.35;;;23.60;1.00;;;;;;5052798;28;20041;-75
2022/05/22 10:45:32;;;;;;;7.07;1.08;;;23.20;1.00;;;;;;5052775;28;20048;-75
2022/05/22 10:48:10;;;;;;;6.32;1.50;;;23.70;1.00;;;;;;5053859;28;20045;-75
2022/05/22 10:50:37;;;;;;;4.93;1.25;;;24.00;1.00;;;;;;5053498;28;20033;-75
2022/05/22 10:53:03;;;;;;;3.45;0.98;;;24.80;1.00;;;;;;5053847;28;20041;-75
2022/05/22 10:55:43;;;;;;;4.22;1.58;;;25.50;1.00;;;;;;5053519;28;20125;-75
2022/05/22 10:58:28;;;;;;;9.02;1.52;;;25.50;1.00;;;;;;5053442;28;20056;-75
2022/05/22 11:01:05;;;;;;;5.88;1.55;;;26.10;1.00;;;;;;5051794;28;20060;-75
2022/05/22 11:03:33;;;;;;;6.32;1.52;;;26.30;1.00;;;;;;5053461;28;20045;-75
2022/05/22 11:06:02;;;;;;;6.13;1.10;;;24.60;1.00;;;;;;5053092;28;20486;-75
2022/05/22 11:08:34;;;;;;;8.98;1.67;;;23.70;1.00;;;;;;5051618;28;20056;-75
2022/05/22 11:11:18;;;;;;;6.97;1.30;;;23.20;1.00;;;;;;5052800;28;20045;-75
2022/05/22 11:13:45;;;;;;;8.00;1.48;;;23.50;1.00;;;;;;5053024;28;20037;-75
2022/05/22 11:16:19;;;;;;;7.10;1.90;;;23.20;1.00;;;;;;5052451;28;20123;-75
2022/05/22 11:18:46;;;;;;;7.88;1.40;;;24.10;1.00;;;;;;5052952;28;20405;-74
2022/05/22 11:21:31;;;;;;;10.48;1.50;;;23.70;1.00;;;;;;5053044;28;20033;-74
2022/05/22 11:23:57;;;;;;;3.97;1.25;;;23.80;1.00;;;;;;5053306;28;20037;-75
2022/05/22 11:26:48;;;;;;;5.15;1.33;;;23.20;1.00;;;;;;5053099;28;20055;-75
2022/05/22 11:29:44;;;;;;;8.50;1.73;;;22.50;1.00;;;;;;5052905;28;20505;-75
2022/05/22 11:32:13;;;;;;;8.15;1.67;;;22.10;1.00;;;;;;5032905;28;20782;-75
2022/05/22 11:34:57;;;;;;;5.65;1.85;;;21.90;1.00;;;;;;5032893;28;20095;-75
2022/05/22 11:37:45;;;;;;;14.10;2.25;;;21.40;1.00;;;;;;5032847;28;20045;-75
2022/05/22 11:40:38;;;;;;;7.97;1.67;;;21.30;1.00;;;;;;5039110;28;20051;-75
2022/05/22 11:43:24;;;;;;;8.20;2.25;;;20.80;1.00;;;;;;5052997;28;20037;-74
2022/05/22 11:46:05;;;;;;;4.65;0.95;;;20.80;1.00;;;;;;5052618;28;20045;-74
2022/05/22 11:48:44;;;;;;;4.65;1.55;;;20.60;1.00;;;;;;5052352;28;20099;-75
2022/05/22 11:51:50;;;;;;;8.18;1.77;;;20.80;1.00;;;;;;5052490;28;20116;-74
2022/05/22 11:54:43;;;;;;;9.13;1.90;;;21.90;1.00;;;;;;5052526;28;20059;-74
2022/05/22 11:57:25;;;;;;;8.07;1.63;;;22.50;1.00;;;;;;5052206;28;20048;-75
2022/05/22 12:00:19;;;;;;;5.45;1.48;;;22.80;1.00;;;;;;5051753;28;20095;-74
2022/05/22 12:02:51;;;;;;;4.72;1.38;;;22.90;1.00;;;;;;5023165;28;20493;-75
2022/05/22 12:05:42;;;;;;;7.03;1.55;;;22.40;1.00;;;;;;5052370;28;20083;-75
2022/05/22 12:08:07;;;;;;;4.20;1.38;;;22.20;1.00;;;;;;5052507;28;20374;-75
2022/05/22 12:10:49;;;;;;;4.55;1.15;;;22.10;1.00;;;;;;5052001;28;20090;-75
2022/05/22 12:13:24;;;;;;;8.98;1.42;;;22.00;1.00;;;;;;5052245;28;20041;-75
2022/05/22 12:16:08;;;;;;;6.75;1.38;;;21.80;1.00;;;;;;5051958;28;20048;-74
2022/05/22 12:18:55;;;;;;;6.80;1.20;;;22.20;1.00;;;;;;5052228;28;20382;-75
2022/05/22 12:21:48;;;;;;;9.75;1.52;;;23.20;1.00;;;;;;5052140;28;20049;-75
2022/05/22 12:24:37;;;;;;;7.28;1.70;;;24.20;1.00;;;;;;5052214;28;20115;-75
2022/05/22 12:27:12;;;;;;;5.40;1.58;;;24.60;1.00;;;;;;5052239;28;20049;-75
2022/05/22 12:29:48;;;;;;;;;;;26.00;1.00;;;;;;5052197;28;20052;-75
2022/05/22 12:32:24;;;;;;;6.63;1.30;;;26.90;1.00;;;;;;5052278;28;19920;-75
2022/05/22 12:34:57;;;;;;;4.85;1.45;;;26.80;1.00;;;;;;5050948;28;20060;-75
2022/05/22 12:37:42;;;;;;;8.20;1.88;;;25.90;1.00;;;;;;5052150;28;20036;-75
2022/05/22 12:40:29;;;;;;;6.88;1.70;;;25.60;1.00;;;;;;5051766;28;20049;-75
2022/05/22 12:42:58;;;;;;;8.93;1.33;;;25.30;1.00;;;;;;5052165;28;20125;-75
2022/05/22 12:45:26;;;;;;;6.63;1.52;;;24.60;1.00;;;;;;5052262;28;20060;-75
2022/05/22 12:47:53;;;;;;;5.88;1.60;;;23.70;1.00;;;;;;5052255;28;20040;-74
2022/05/22 12:50:43;;;;;;;5.85;1.23;;;23.00;1.00;;;;;;5051517;28;20045;-75
2022/05/22 12:53:26;;;;;;;6.05;1.67;;;23.30;1.00;;;;;;5052059;28;20052;-75
2022/05/22 12:55:53;;;;;;;6.07;1.40;;;23.90;1.00;;;;;;5050612;28;20063;-75
2022/05/22 12:58:42;;;;;;;7.05;1.75;;;24.50;1.00;;;;;;5051881;28;20041;-74
2022/05/22 13:01:31;;;;;;;4.20;1.13;;;24.00;1.00;;;;;;5051208;28;20128;-75
2022/05/22 13:03:59;;;;;;;8.68;1.42;;;23.90;1.00;;;;;;5051939;28;20041;-74
2022/05/22 13:07:02;;;;;;;4.78;1.40;;;23.80;1.00;;;;;;5051745;28;20107;-75
2022/05/22 13:09:30;;;;;;;6.43;1.45;;;23.00;1.00;;;;;;5051976;28;20098;-75
2022/05/22 13:11:59;;;;;;;6.45;1.52;;;22.50;1.00;;;;;;5051250;28;20459;-75
2022/05/22 13:14:55;;;;;;;6.55;2.13;;;22.60;1.00;;;;;;5051633;28;20128;-75
2022/05/22 13:17:50;;;;;;;7.17;2.70;;;22.70;1.00;;;;;;5051849;28;20041;-75